createdAt,value
2023-02-15T00:07:19.793Z,5.40
2023-02-15T07:51:43.912Z,4.90
2023-02-15T07:54:12.461Z,6.30
2023-02-15T07:56:41.008Z,6.60
2023-02-15T07:59:09.985Z,6.80
2023-02-15T08:01:40.082Z,7.00
2023-02-15T08:04:11.824Z,7.20
2023-02-15T08:06:40.618Z,7.40
2023-02-15T08:09:11.489Z,7.60
2023-02-15T08:11:43.594Z,7.90
2023-02-15T08:14:21.133Z,8.00
2023-02-15T08:16:53.261Z,8.20
2023-02-15T08:21:53.246Z,8.40
2023-02-15T08:24:23.730Z,8.50
2023-02-15T08:26:53.213Z,8.60
2023-02-15T08:29:24.521Z,8.70
2023-02-15T08:34:37.493Z,8.80
2023-02-15T08:37:06.923Z,9.40
2023-02-15T16:24:23.556Z,9.60
2023-02-15T17:55:38.375Z,12.70
2023-02-15T17:58:15.376Z,11.30
2023-02-15T18:01:08.124Z,11.30
2023-02-15T18:09:33.635Z,11.30
2023-02-15T18:12:02.890Z,11.10
2023-02-15T18:14:31.817Z,10.90
2023-02-15T18:17:00.452Z,10.90
2023-02-15T18:19:29.399Z,10.90
2023-02-15T18:21:58.030Z,10.90
2023-02-15T18:24:27.409Z,10.90
2023-02-15T18:26:56.132Z,10.90
2023-02-15T18:29:24.675Z,10.80
2023-02-15T18:31:56.764Z,10.80
2023-02-15T18:36:56.237Z,10.80
2023-02-15T18:39:46.771Z,10.60
2023-02-15T18:42:28.117Z,10.70
2023-02-15T18:45:03.024Z,10.60
2023-02-15T18:47:31.579Z,10.70
2023-02-15T18:50:00.220Z,10.60
2023-02-15T18:52:31.827Z,10.60
2023-02-15T18:55:02.940Z,10.60
2023-02-15T18:57:31.862Z,10.70
2023-02-15T19:00:00.432Z,10.40
2023-02-15T19:02:29.076Z,10.30
2023-02-15T19:04:57.591Z,10.30
2023-02-15T19:07:29.704Z,10.30
2023-02-15T19:10:01.062Z,10.60
2023-02-15T19:12:29.942Z,10.20
2023-02-15T19:14:58.506Z,10.20
2023-02-15T19:17:27.050Z,10.10
2023-02-15T19:19:55.600Z,10.10
2023-02-15T19:22:29.492Z,10.10
2023-02-15T19:25:00.962Z,10.10
2023-02-15T19:27:35.907Z,10.10
2023-02-15T19:30:07.567Z,10.00
2023-02-15T19:32:36.176Z,10.00
2023-02-15T19:35:26.031Z,10.00
2023-02-15T19:37:57.258Z,10.00
2023-02-15T19:40:32.119Z,9.80
2023-02-15T19:43:25.188Z,9.90
2023-02-15T19:48:21.693Z,9.70
2023-02-15T19:50:50.590Z,9.80
2023-02-15T19:53:49.221Z,9.70
